sensor_id;sensor_type;location;lat;lon;timestamp;pressure;altitude;pressure_sealevel;temperature;humidity
49973;BME280;65693;49.798;10.968;2023-03-13T00:01:40;97646.19;;;6.24;61.34
49973;BME280;65693;49.798;10.968;2023-03-13T00:04:09;97644.41;;;6.25;61.32
49973;BME280;65693;49.798;10.968;2023-03-13T00:06:39;97640.00;;;6.25;61.43
49973;BME280;65693;49.798;10.968;2023-03-13T00:09:10;97629.47;;;6.25;61.42
49973;BME280;65693;49.798;10.968;2023-03-13T00:11:44;97639.06;;;6.26;61.32
49973;BME280;65693;49.798;10.968;2023-03-13T00:14:14;97628.53;;;6.26;61.18
49973;BME280;65693;49.798;10.968;2023-03-13T00:16:44;97619.78;;;6.26;61.13
49973;BME280;65693;49.798;10.968;2023-03-13T00:19:14;97616.25;;;6.27;61.33
49973;BME280;65693;49.798;10.968;2023-03-13T00:21:41;97612.75;;;6.26;61.14
49973;BME280;65693;49.798;10.968;2023-03-13T00:24:10;97610.97;;;6.27;61.30
49973;BME280;65693;49.798;10.968;2023-03-13T00:26:38;97613.50;;;6.28;61.16
49973;BME280;65693;49.798;10.968;2023-03-13T00:29:06;97613.50;;;6.28;61.01
49973;BME280;65693;49.798;10.968;2023-03-13T00:31:39;97604.84;;;6.26;61.18
49973;BME280;65693;49.798;10.968;2023-03-13T00:34:08;97608.34;;;6.27;61.43
49973;BME280;65693;49.798;10.968;2023-03-13T00:36:35;97605.72;;;6.27;61.38
49973;BME280;65693;49.798;10.968;2023-03-13T00:39:04;97611.72;;;6.29;61.13
49973;BME280;65693;49.798;10.968;2023-03-13T00:41:41;97608.25;;;6.28;61.38
49973;BME280;65693;49.798;10.968;2023-03-13T00:44:10;97604.66;;;6.30;61.33
49973;BME280;65693;49.798;10.968;2023-03-13T00:46:45;97603.84;;;6.29;61.12
49973;BME280;65693;49.798;10.968;2023-03-13T00:49:20;97607.28;;;6.30;61.07
49973;BME280;65693;49.798;10.968;2023-03-13T00:51:48;97602.97;;;6.28;61.31
49973;BME280;65693;49.798;10.968;2023-03-13T00:54:15;97602.97;;;6.28;61.14
49973;BME280;65693;49.798;10.968;2023-03-13T00:56:45;97595.19;;;6.27;61.39
49973;BME280;65693;49.798;10.968;2023-03-13T00:59:15;97595.94;;;6.29;61.40
49973;BME280;65693;49.798;10.968;2023-03-13T01:01:57;97583.63;;;6.30;61.31
49973;BME280;65693;49.798;10.968;2023-03-13T01:04:31;97592.38;;;6.30;61.51
49973;BME280;65693;49.798;10.968;2023-03-13T01:07:00;97582.69;;;6.31;61.31
49973;BME280;65693;49.798;10.968;2023-03-13T01:09:26;97580.16;;;6.29;61.42
49973;BME280;65693;49.798;10.968;2023-03-13T01:11:57;97580.97;;;6.30;61.44
49973;BME280;65693;49.798;10.968;2023-03-13T01:14:27;97575.72;;;6.30;61.46
49973;BME280;65693;49.798;10.968;2023-03-13T01:17:00;97573.94;;;6.30;61.40
49973;BME280;65693;49.798;10.968;2023-03-13T01:19:28;97560.78;;;6.30;61.35
49973;BME280;65693;49.798;10.968;2023-03-13T01:22:03;97560.78;;;6.30;61.25
49973;BME280;65693;49.798;10.968;2023-03-13T01:24:35;97559.00;;;6.31;61.27
49973;BME280;65693;49.798;10.968;2023-03-13T01:27:02;97560.88;;;6.28;61.24
49973;BME280;65693;49.798;10.968;2023-03-13T01:29:31;97553.91;;;6.27;61.56
49973;BME280;65693;49.798;10.968;2023-03-13T01:32:13;97554.66;;;6.30;61.40
49973;BME280;65693;49.798;10.968;2023-03-13T01:34:41;97545.00;;;6.30;61.50
49973;BME280;65693;49.798;10.968;2023-03-13T01:37:09;97539.66;;;6.32;61.16
49973;BME280;65693;49.798;10.968;2023-03-13T01:39:37;97545.84;;;6.31;61.27
49973;BME280;65693;49.798;10.968;2023-03-13T01:42:18;97545.84;;;6.31;61.35
49973;BME280;65693;49.798;10.968;2023-03-13T01:44:51;97544.94;;;6.32;61.47
49973;BME280;65693;49.798;10.968;2023-03-13T01:47:31;97537.03;;;6.32;61.27
49973;BME280;65693;49.798;10.968;2023-03-13T01:49:59;97533.56;;;6.31;61.50
49973;BME280;65693;49.798;10.968;2023-03-13T01:52:29;97537.03;;;6.32;61.43
49973;BME280;65693;49.798;10.968;2023-03-13T01:55:13;97535.31;;;6.31;61.46
49973;BME280;65693;49.798;10.968;2023-03-13T01:57:47;97533.47;;;6.33;61.38
49973;BME280;65693;49.798;10.968;2023-03-13T02:00:20;97532.63;;;6.32;61.50
49973;BME280;65693;49.798;10.968;2023-03-13T02:02:54;97525.69;;;6.31;60.86
49973;BME280;65693;49.798;10.968;2023-03-13T02:05:26;97513.34;;;6.32;61.40
49973;BME280;65693;49.798;10.968;2023-03-13T02:07:58;97516.84;;;6.32;61.47
49973;BME280;65693;49.798;10.968;2023-03-13T02:10:30;97511.56;;;6.32;61.42
49973;BME280;65693;49.798;10.968;2023-03-13T02:13:03;97514.97;;;6.34;61.42
49973;BME280;65693;49.798;10.968;2023-03-13T02:15:33;97508.00;;;6.33;61.32
49973;BME280;65693;49.798;10.968;2023-03-13T02:18:15;97501.88;;;6.33;61.44
49973;BME280;65693;49.798;10.968;2023-03-13T02:20:47;97496.63;;;6.33;61.19
49973;BME280;65693;49.798;10.968;2023-03-13T02:23:23;97492.09;;;6.35;61.38
49973;BME280;65693;49.798;10.968;2023-03-13T02:25:57;97483.47;;;6.33;61.27
49973;BME280;65693;49.798;10.968;2023-03-13T02:28:27;97480.81;;;6.33;61.42
49973;BME280;65693;49.798;10.968;2023-03-13T02:31:00;97476.44;;;6.33;61.46
49973;BME280;65693;49.798;10.968;2023-03-13T02:33:39;97466.66;;;6.35;61.26
49973;BME280;65693;49.798;10.968;2023-03-13T02:36:08;97472.78;;;6.36;61.14
49973;BME280;65693;49.798;10.968;2023-03-13T02:38:46;97474.56;;;6.35;61.54
49973;BME280;65693;49.798;10.968;2023-03-13T02:41:20;97462.25;;;6.36;61.39
49973;BME280;65693;49.798;10.968;2023-03-13T02:43:51;97460.53;;;6.35;61.45
49973;BME280;65693;49.798;10.968;2023-03-13T02:46:20;97458.75;;;6.35;61.50
49973;BME280;65693;49.798;10.968;2023-03-13T02:48:55;97448.16;;;6.37;61.46
49973;BME280;65693;49.798;10.968;2023-03-13T02:51:34;97441.19;;;6.36;61.21
49973;BME280;65693;49.798;10.968;2023-03-13T02:54:16;97444.66;;;6.36;61.35
49973;BME280;65693;49.798;10.968;2023-03-13T02:56:47;97442.97;;;6.35;61.24
49973;BME280;65693;49.798;10.968;2023-03-13T02:59:16;97435.94;;;6.36;61.55
49973;BME280;65693;49.798;10.968;2023-03-13T03:01:45;97428.88;;;6.36;61.35
49973;BME280;65693;49.798;10.968;2023-03-13T03:04:19;97427.19;;;6.35;61.47
49973;BME280;65693;49.798;10.968;2023-03-13T03:06:56;97431.50;;;6.36;61.37
49973;BME280;65693;49.798;10.968;2023-03-13T03:09:24;97417.50;;;6.36;61.33
49973;BME280;65693;49.798;10.968;2023-03-13T03:11:56;97427.09;;;6.37;61.50
49973;BME280;65693;49.798;10.968;2023-03-13T03:14:24;97433.31;;;6.36;61.32
49973;BME280;65693;49.798;10.968;2023-03-13T03:16:54;97425.41;;;6.36;61.24
49973;BME280;65693;49.798;10.968;2023-03-13T03:19:20;97419.28;;;6.35;61.58
49973;BME280;65693;49.798;10.968;2023-03-13T03:21:47;97420.03;;;6.37;61.40
49973;BME280;65693;49.798;10.968;2023-03-13T03:24:14;97415.78;;;6.35;61.55
49973;BME280;65693;49.798;10.968;2023-03-13T03:26:41;97413.06;;;6.36;61.57
49973;BME280;65693;49.798;10.968;2023-03-13T03:29:10;97420.97;;;6.36;61.54
49973;BME280;65693;49.798;10.968;2023-03-13T03:31:39;97413.06;;;6.36;61.36
49973;BME280;65693;49.798;10.968;2023-03-13T03:34:07;97409.63;;;6.36;61.33
49973;BME280;65693;49.798;10.968;2023-03-13T03:36:42;97403.41;;;6.37;61.49
49973;BME280;65693;49.798;10.968;2023-03-13T03:39:12;97401.72;;;6.36;61.40
49973;BME280;65693;49.798;10.968;2023-03-13T03:41:40;97406.03;;;6.37;61.44
49973;BME280;65693;49.798;10.968;2023-03-13T03:44:08;97407.88;;;6.35;61.59
49973;BME280;65693;49.798;10.968;2023-03-13T03:46:39;97395.50;;;6.37;61.52
49973;BME280;65693;49.798;10.968;2023-03-13T03:49:09;97392.88;;;6.37;61.62
49973;BME280;65693;49.798;10.968;2023-03-13T03:51:37;97389.31;;;6.38;61.37
49973;BME280;65693;49.798;10.968;2023-03-13T03:54:05;97384.19;;;6.35;61.66
49973;BME280;65693;49.798;10.968;2023-03-13T03:56:33;97385.94;;;6.36;61.29
49973;BME280;65693;49.798;10.968;2023-03-13T03:59:03;97385.06;;;6.35;61.50
49973;BME280;65693;49.798;10.968;2023-03-13T04:01:30;97369.28;;;6.35;61.37
49973;BME280;65693;49.798;10.968;2023-03-13T04:04:02;97373.59;;;6.36;61.45
49973;BME280;65693;49.798;10.968;2023-03-13T04:06:33;97364.00;;;6.35;61.39
49973;BME280;65693;49.798;10.968;2023-03-13T04:09:00;97352.53;;;6.36;61.40
49973;BME280;65693;49.798;10.968;2023-03-13T04:11:29;97357.72;;;6.38;61.38
49973;BME280;65693;49.798;10.968;2023-03-13T04:13:58;97349.84;;;6.38;61.61
49973;BME280;65693;49.798;10.968;2023-03-13T04:16:28;97344.56;;;6.38;61.71
49973;BME280;65693;49.798;10.968;2023-03-13T04:19:10;97330.47;;;6.39;61.62
49973;BME280;65693;49.798;10.968;2023-03-13T04:21:40;97335.81;;;6.37;61.55
49973;BME280;65693;49.798;10.968;2023-03-13T04:24:07;97319.94;;;6.39;61.60
49973;BME280;65693;49.798;10.968;2023-03-13T04:26:49;97322.56;;;6.39;61.54
49973;BME280;65693;49.798;10.968;2023-03-13T04:29:19;97315.63;;;6.38;61.57
49973;BME280;65693;49.798;10.968;2023-03-13T04:31:47;97319.94;;;6.39;61.70
49973;BME280;65693;49.798;10.968;2023-03-13T04:34:29;97317.31;;;6.39;61.63
49973;BME280;65693;49.798;10.968;2023-03-13T04:36:59;97313.72;;;6.40;61.45
49973;BME280;65693;49.798;10.968;2023-03-13T04:39:29;97314.56;;;6.40;61.65
49973;BME280;65693;49.798;10.968;2023-03-13T04:41:59;97315.63;;;6.38;61.64
49973;BME280;65693;49.798;10.968;2023-03-13T04:44:34;97319.00;;;6.40;61.36
49973;BME280;65693;49.798;10.968;2023-03-13T04:47:03;97322.47;;;6.40;61.56
49973;BME280;65693;49.798;10.968;2023-03-13T04:49:49;97328.59;;;6.41;61.60
49973;BME280;65693;49.798;10.968;2023-03-13T04:52:24;97332.91;;;6.42;61.76
49973;BME280;65693;49.798;10.968;2023-03-13T04:54:53;97321.63;;;6.40;61.70
49973;BME280;65693;49.798;10.968;2023-03-13T04:57:23;97315.44;;;6.41;61.76
49973;BME280;65693;49.798;10.968;2023-03-13T04:59:57;97314.56;;;6.40;61.66
49973;BME280;65693;49.798;10.968;2023-03-13T05:02:25;97311.00;;;6.41;61.51
49973;BME280;65693;49.798;10.968;2023-03-13T05:05:07;97314.47;;;6.42;61.57
49973;BME280;65693;49.798;10.968;2023-03-13T05:07:39;97312.78;;;6.41;61.71
49973;BME280;65693;49.798;10.968;2023-03-13T05:10:07;97306.50;;;6.44;61.74
49973;BME280;65693;49.798;10.968;2023-03-13T05:12:39;97309.97;;;6.44;61.82
49973;BME280;65693;49.798;10.968;2023-03-13T05:15:10;97312.50;;;6.46;61.57
49973;BME280;65693;49.798;10.968;2023-03-13T05:17:47;97311.66;;;6.45;61.74
49973;BME280;65693;49.798;10.968;2023-03-13T05:20:17;97306.50;;;6.44;61.85
49973;BME280;65693;49.798;10.968;2023-03-13T05:22:45;97296.81;;;6.44;61.65
49973;BME280;65693;49.798;10.968;2023-03-13T05:25:17;97299.44;;;6.44;61.62
49973;BME280;65693;49.798;10.968;2023-03-13T05:27:52;97291.53;;;6.44;61.72
49973;BME280;65693;49.798;10.968;2023-03-13T05:30:24;97286.81;;;6.49;61.70
49973;BME280;65693;49.798;10.968;2023-03-13T05:32:52;97274.59;;;6.48;61.59
49973;BME280;65693;49.798;10.968;2023-03-13T05:35:22;97275.47;;;6.49;61.49
49973;BME280;65693;49.798;10.968;2023-03-13T05:37:49;97281.56;;;6.49;61.60
49973;BME280;65693;49.798;10.968;2023-03-13T05:40:19;97274.53;;;6.50;61.52
49973;BME280;65693;49.798;10.968;2023-03-13T05:42:47;97273.66;;;6.49;61.77
49973;BME280;65693;49.798;10.968;2023-03-13T05:45:17;97256.75;;;6.53;61.81
49973;BME280;65693;49.798;10.968;2023-03-13T05:47:45;97249.16;;;6.49;61.74
49973;BME280;65693;49.798;10.968;2023-03-13T05:50:13;97249.97;;;6.49;61.88
49973;BME280;65693;49.798;10.968;2023-03-13T05:52:53;97252.53;;;6.51;62.02
49973;BME280;65693;49.798;10.968;2023-03-13T05:55:22;97237.75;;;6.48;61.99
49973;BME280;65693;49.798;10.968;2023-03-13T05:58:03;97236.81;;;6.49;62.12
49973;BME280;65693;49.798;10.968;2023-03-13T06:00:31;97236.81;;;6.49;61.99
49973;BME280;65693;49.798;10.968;2023-03-13T06:03:01;97240.38;;;6.48;62.12
49973;BME280;65693;49.798;10.968;2023-03-13T06:05:28;97232.50;;;6.48;62.12
49973;BME280;65693;49.798;10.968;2023-03-13T06:08:12;97230.59;;;6.50;61.93
49973;BME280;65693;49.798;10.968;2023-03-13T06:10:40;97234.19;;;6.49;62.13
49973;BME280;65693;49.798;10.968;2023-03-13T06:13:09;97224.50;;;6.50;61.99
49973;BME280;65693;49.798;10.968;2023-03-13T06:15:36;97229.56;;;6.53;62.36
49973;BME280;65693;49.798;10.968;2023-03-13T06:18:06;97216.88;;;6.60;62.29
49973;BME280;65693;49.798;10.968;2023-03-13T06:20:35;97219.31;;;6.63;62.13
49973;BME280;65693;49.798;10.968;2023-03-13T06:23:07;97221.09;;;6.62;62.19
49973;BME280;65693;49.798;10.968;2023-03-13T06:26:09;97221.28;;;6.59;62.44
49973;BME280;65693;49.798;10.968;2023-03-13T06:28:37;97224.78;;;6.60;62.65
49973;BME280;65693;49.798;10.968;2023-03-13T06:31:07;97223.09;;;6.59;62.42
49973;BME280;65693;49.798;10.968;2023-03-13T06:33:37;97219.72;;;6.57;62.46
49973;BME280;65693;49.798;10.968;2023-03-13T06:36:07;97217.91;;;6.57;62.33
49973;BME280;65693;49.798;10.968;2023-03-13T06:38:43;97210.94;;;6.56;62.36
49973;BME280;65693;49.798;10.968;2023-03-13T06:41:11;97218.03;;;6.55;62.58
49973;BME280;65693;49.798;10.968;2023-03-13T06:43:41;97220.53;;;6.57;62.50
49973;BME280;65693;49.798;10.968;2023-03-13T06:46:15;97212.75;;;6.55;62.28
49973;BME280;65693;49.798;10.968;2023-03-13T06:48:46;97194.31;;;6.55;62.20
49973;BME280;65693;49.798;10.968;2023-03-13T06:51:15;97193.38;;;6.57;62.53
49973;BME280;65693;49.798;10.968;2023-03-13T06:53:46;97206.63;;;6.55;62.18
49973;BME280;65693;49.798;10.968;2023-03-13T06:56:14;97199.59;;;6.55;62.25
49973;BME280;65693;49.798;10.968;2023-03-13T06:58:45;97205.69;;;6.56;62.47
49973;BME280;65693;49.798;10.968;2023-03-13T07:01:13;97199.47;;;6.57;62.43
49973;BME280;65693;49.798;10.968;2023-03-13T07:03:42;97204.84;;;6.55;62.33
49973;BME280;65693;49.798;10.968;2023-03-13T07:06:12;97209.19;;;6.57;62.38
49973;BME280;65693;49.798;10.968;2023-03-13T07:08:39;97211.69;;;6.58;62.45
49973;BME280;65693;49.798;10.968;2023-03-13T07:11:10;97215.28;;;6.57;62.45
49973;BME280;65693;49.798;10.968;2023-03-13T07:13:39;97210.94;;;6.56;62.31
49973;BME280;65693;49.798;10.968;2023-03-13T07:16:09;97215.19;;;6.59;62.58
49973;BME280;65693;49.798;10.968;2023-03-13T07:18:39;97211.59;;;6.60;62.47
49973;BME280;65693;49.798;10.968;2023-03-13T07:21:10;97210.75;;;6.59;62.59
49973;BME280;65693;49.798;10.968;2023-03-13T07:23:38;97220.38;;;6.60;62.26
49973;BME280;65693;49.798;10.968;2023-03-13T07:26:07;97208.88;;;6.61;62.32
49973;BME280;65693;49.798;10.968;2023-03-13T07:28:36;97224.56;;;6.63;62.57
49973;BME280;65693;49.798;10.968;2023-03-13T07:31:07;97214.97;;;6.62;62.39
49973;BME280;65693;49.798;10.968;2023-03-13T07:33:35;97222.69;;;6.65;62.46
49973;BME280;65693;49.798;10.968;2023-03-13T07:36:11;97221.00;;;6.64;62.62
49973;BME280;65693;49.798;10.968;2023-03-13T07:38:42;97216.59;;;6.64;62.39
49973;BME280;65693;49.798;10.968;2023-03-13T07:41:14;97213.84;;;6.66;62.36
49973;BME280;65693;49.798;10.968;2023-03-13T07:43:44;97211.19;;;6.66;62.28
49973;BME280;65693;49.798;10.968;2023-03-13T07:46:13;97206.88;;;6.65;62.45
49973;BME280;65693;49.798;10.968;2023-03-13T07:48:49;97201.63;;;6.65;62.43
49973;BME280;65693;49.798;10.968;2023-03-13T07:51:30;97197.22;;;6.65;62.33
49973;BME280;65693;49.798;10.968;2023-03-13T07:54:00;97198.03;;;6.66;62.33
49973;BME280;65693;49.798;10.968;2023-03-13T07:56:28;97185.72;;;6.66;62.38
49973;BME280;65693;49.798;10.968;2023-03-13T07:59:01;97180.34;;;6.68;62.26
49973;BME280;65693;49.798;10.968;2023-03-13T08:01:30;97188.25;;;6.68;62.48
49973;BME280;65693;49.798;10.968;2023-03-13T08:03:57;97192.59;;;6.69;62.41
49973;BME280;65693;49.798;10.968;2023-03-13T08:06:33;97201.25;;;6.71;62.05
49973;BME280;65693;49.798;10.968;2023-03-13T08:09:02;97206.59;;;6.69;62.13
49973;BME280;65693;49.798;10.968;2023-03-13T08:11:33;97213.66;;;6.69;62.51
49973;BME280;65693;49.798;10.968;2023-03-13T08:14:12;97216.91;;;6.73;62.19
49973;BME280;65693;49.798;10.968;2023-03-13T08:16:42;97216.09;;;6.72;62.20
49973;BME280;65693;49.798;10.968;2023-03-13T08:19:10;97215.25;;;6.72;62.33
49973;BME280;65693;49.798;10.968;2023-03-13T08:21:40;97212.59;;;6.72;62.25
49973;BME280;65693;49.798;10.968;2023-03-13T08:24:07;97208.28;;;6.70;62.49
49973;BME280;65693;49.798;10.968;2023-03-13T08:26:37;97202.06;;;6.72;62.28
49973;BME280;65693;49.798;10.968;2023-03-13T08:29:13;97194.09;;;6.73;62.16
49973;BME280;65693;49.798;10.968;2023-03-13T08:31:42;97199.34;;;6.73;62.18
49973;BME280;65693;49.798;10.968;2023-03-13T08:34:16;97184.50;;;6.72;62.27
49973;BME280;65693;49.798;10.968;2023-03-13T08:36:46;97186.19;;;6.73;62.35
49973;BME280;65693;49.798;10.968;2023-03-13T08:39:14;97185.25;;;6.74;62.43
49973;BME280;65693;49.798;10.968;2023-03-13T08:41:43;97196.59;;;6.75;62.06
49973;BME280;65693;49.798;10.968;2023-03-13T08:44:15;97191.34;;;6.75;62.09
49973;BME280;65693;49.798;10.968;2023-03-13T08:46:42;97186.72;;;6.78;62.12
49973;BME280;65693;49.798;10.968;2023-03-13T08:49:14;97192.94;;;6.77;62.07
49973;BME280;65693;49.798;10.968;2023-03-13T08:51:42;97193.78;;;6.78;62.31
49973;BME280;65693;49.798;10.968;2023-03-13T08:54:12;97187.59;;;6.79;61.96
49973;BME280;65693;49.798;10.968;2023-03-13T08:56:40;97182.50;;;6.76;62.22
49973;BME280;65693;49.798;10.968;2023-03-13T08:59:09;97180.72;;;6.76;62.30
49973;BME280;65693;49.798;10.968;2023-03-13T09:01:43;97183.34;;;6.76;62.24
49973;BME280;65693;49.798;10.968;2023-03-13T09:04:18;97177.03;;;6.79;62.40
49973;BME280;65693;49.798;10.968;2023-03-13T09:06:47;97170.72;;;6.81;62.18
49973;BME280;65693;49.798;10.968;2023-03-13T09:09:15;97178.63;;;6.81;62.02
49973;BME280;65693;49.798;10.968;2023-03-13T09:11:47;97184.81;;;6.80;62.07
49973;BME280;65693;49.798;10.968;2023-03-13T09:14:22;97179.47;;;6.82;62.25
49973;BME280;65693;49.798;10.968;2023-03-13T09:16:55;97179.56;;;6.80;62.29
49973;BME280;65693;49.798;10.968;2023-03-13T09:19:25;97178.53;;;6.83;62.25
49973;BME280;65693;49.798;10.968;2023-03-13T09:21:55;97177.66;;;6.82;62.13
49973;BME280;65693;49.798;10.968;2023-03-13T09:24:25;97167.88;;;6.84;62.05
49973;BME280;65693;49.798;10.968;2023-03-13T09:26:52;97173.91;;;6.87;62.44
49973;BME280;65693;49.798;10.968;2023-03-13T09:29:18;97164.41;;;6.84;62.37
49973;BME280;65693;49.798;10.968;2023-03-13T09:31:47;97166.84;;;6.87;61.92
49973;BME280;65693;49.798;10.968;2023-03-13T09:34:17;97172.84;;;6.89;62.18
49973;BME280;65693;49.798;10.968;2023-03-13T09:36:49;97170.34;;;6.88;61.93
49973;BME280;65693;49.798;10.968;2023-03-13T09:39:18;97170.94;;;6.91;61.75
49973;BME280;65693;49.798;10.968;2023-03-13T09:41:52;97167.69;;;6.88;62.09
49973;BME280;65693;49.798;10.968;2023-03-13T09:44:31;97160.53;;;6.90;62.11
49973;BME280;65693;49.798;10.968;2023-03-13T09:47:11;97169.25;;;6.90;62.15
49973;BME280;65693;49.798;10.968;2023-03-13T09:49:44;97157.91;;;6.90;62.20
49973;BME280;65693;49.798;10.968;2023-03-13T09:52:23;97156.09;;;6.90;62.33
49973;BME280;65693;49.798;10.968;2023-03-13T09:55:01;97161.47;;;6.89;62.32
49973;BME280;65693;49.798;10.968;2023-03-13T09:57:42;97163.16;;;6.90;62.29
49973;BME280;65693;49.798;10.968;2023-03-13T10:00:21;97174.34;;;6.93;62.06
49973;BME280;65693;49.798;10.968;2023-03-13T10:02:56;97168.22;;;6.93;62.33
49973;BME280;65693;49.798;10.968;2023-03-13T10:05:28;97177.09;;;6.92;62.54
49973;BME280;65693;49.798;10.968;2023-03-13T10:08:09;97169.09;;;6.93;62.50
49973;BME280;65693;49.798;10.968;2023-03-13T10:10:44;97181.94;;;6.98;62.48
49973;BME280;65693;49.798;10.968;2023-03-13T10:13:19;97186.38;;;6.97;62.45
49973;BME280;65693;49.798;10.968;2023-03-13T10:15:57;97181.09;;;6.97;62.51
49973;BME280;65693;49.798;10.968;2023-03-13T10:18:26;97173.94;;;7.00;62.24
49973;BME280;65693;49.798;10.968;2023-03-13T10:21:13;97168.56;;;7.01;62.56
49973;BME280;65693;49.798;10.968;2023-03-13T10:23:46;97171.09;;;7.03;62.18
49973;BME280;65693;49.798;10.968;2023-03-13T10:26:20;97185.97;;;7.04;62.30
49973;BME280;65693;49.798;10.968;2023-03-13T10:28:50;97175.34;;;7.05;62.37
49973;BME280;65693;49.798;10.968;2023-03-13T10:31:23;97178.91;;;7.04;62.58
49973;BME280;65693;49.798;10.968;2023-03-13T10:33:51;97176.91;;;7.08;62.09
49973;BME280;65693;49.798;10.968;2023-03-13T10:36:22;97172.69;;;7.05;62.46
49973;BME280;65693;49.798;10.968;2023-03-13T10:38:53;97166.47;;;7.06;62.78
49973;BME280;65693;49.798;10.968;2023-03-13T10:41:30;97168.16;;;7.07;62.41
49973;BME280;65693;49.798;10.968;2023-03-13T10:44:03;97160.91;;;7.11;62.55
49973;BME280;65693;49.798;10.968;2023-03-13T10:46:34;97161.84;;;7.10;63.20
49973;BME280;65693;49.798;10.968;2023-03-13T10:49:14;97158.16;;;7.12;62.61
49973;BME280;65693;49.798;10.968;2023-03-13T10:51:50;97144.88;;;7.14;62.65
49973;BME280;65693;49.798;10.968;2023-03-13T10:54:22;97136.88;;;7.16;62.57
49973;BME280;65693;49.798;10.968;2023-03-13T10:57:26;97142.78;;;7.19;62.51
49973;BME280;65693;49.798;10.968;2023-03-13T10:59:55;97138.38;;;7.20;62.32
49973;BME280;65693;49.798;10.968;2023-03-13T11:02:30;97128.66;;;7.20;62.40
49973;BME280;65693;49.798;10.968;2023-03-13T11:05:00;97132.16;;;7.21;62.83
49973;BME280;65693;49.798;10.968;2023-03-13T11:07:32;97122.44;;;7.21;62.54
49973;BME280;65693;49.798;10.968;2023-03-13T11:10:13;97124.03;;;7.24;62.49
49973;BME280;65693;49.798;10.968;2023-03-13T11:12:45;97112.53;;;7.25;62.58
49973;BME280;65693;49.798;10.968;2023-03-13T11:15:20;97115.91;;;7.27;62.52
49973;BME280;65693;49.798;10.968;2023-03-13T11:17:56;97103.59;;;7.28;62.75
49973;BME280;65693;49.798;10.968;2023-03-13T11:20:31;97107.78;;;7.30;62.92
49973;BME280;65693;49.798;10.968;2023-03-13T11:23:17;97100.75;;;7.31;62.60
49973;BME280;65693;49.798;10.968;2023-03-13T11:26:00;97097.97;;;7.32;62.15
49973;BME280;65693;49.798;10.968;2023-03-13T11:28:47;97109.25;;;7.34;62.27
49973;BME280;65693;49.798;10.968;2023-03-13T11:31:31;97113.50;;;7.37;62.50
49973;BME280;65693;49.798;10.968;2023-03-13T11:34:18;97120.56;;;7.36;62.55
49973;BME280;65693;49.798;10.968;2023-03-13T11:36:56;97116.03;;;7.38;62.15
49973;BME280;65693;49.798;10.968;2023-03-13T11:39:39;97116.03;;;7.38;62.07
49973;BME280;65693;49.798;10.968;2023-03-13T11:42:27;97097.47;;;7.40;62.48
49973;BME280;65693;49.798;10.968;2023-03-13T11:45:04;97089.44;;;7.41;61.94
49973;BME280;65693;49.798;10.968;2023-03-13T11:47:47;97093.88;;;7.41;61.90
49973;BME280;65693;49.798;10.968;2023-03-13T11:50:38;97087.78;;;7.40;62.06
49973;BME280;65693;49.798;10.968;2023-03-13T11:53:23;97091.13;;;7.43;62.77
49973;BME280;65693;49.798;10.968;2023-03-13T11:56:20;97085.00;;;7.42;62.43
49973;BME280;65693;49.798;10.968;2023-03-13T11:59:15;97079.63;;;7.44;62.30
49973;BME280;65693;49.798;10.968;2023-03-13T12:01:50;97074.28;;;7.45;62.29
49973;BME280;65693;49.798;10.968;2023-03-13T12:04:23;97065.41;;;7.46;62.52
49973;BME280;65693;49.798;10.968;2023-03-13T12:06:55;97053.06;;;7.47;62.52
49973;BME280;65693;49.798;10.968;2023-03-13T12:09:25;97046.75;;;7.49;62.45
49973;BME280;65693;49.798;10.968;2023-03-13T12:11:59;97035.16;;;7.52;62.12
49973;BME280;65693;49.798;10.968;2023-03-13T12:14:32;97044.84;;;7.51;62.64
49973;BME280;65693;49.798;10.968;2023-03-13T12:17:06;97034.78;;;7.69;67.08
49973;BME280;65693;49.798;10.968;2023-03-13T12:19:48;97023.81;;;8.00;66.53
49973;BME280;65693;49.798;10.968;2023-03-13T12:22:21;97020.78;;;7.93;65.15
49973;BME280;65693;49.798;10.968;2023-03-13T12:24:54;97015.97;;;7.87;64.58
49973;BME280;65693;49.798;10.968;2023-03-13T12:27:30;97026.84;;;7.82;64.35
49973;BME280;65693;49.798;10.968;2023-03-13T12:30:05;97025.25;;;7.80;63.40
49973;BME280;65693;49.798;10.968;2023-03-13T12:32:42;97020.09;;;7.78;63.62
49973;BME280;65693;49.798;10.968;2023-03-13T12:35:19;97007.66;;;7.80;63.77
49973;BME280;65693;49.798;10.968;2023-03-13T12:37:54;96992.06;;;7.77;63.19
49973;BME280;65693;49.798;10.968;2023-03-13T12:40:28;97001.00;;;7.75;63.74
49973;BME280;65693;49.798;10.968;2023-03-13T12:43:04;96987.72;;;7.76;63.24
49973;BME280;65693;49.798;10.968;2023-03-13T12:45:44;96980.66;;;7.77;63.53
49973;BME280;65693;49.798;10.968;2023-03-13T12:48:24;96976.41;;;7.74;63.62
49973;BME280;65693;49.798;10.968;2023-03-13T12:51:08;96976.31;;;7.76;63.36
49973;BME280;65693;49.798;10.968;2023-03-13T12:56:48;96957.75;;;7.77;63.48
49973;BME280;65693;49.798;10.968;2023-03-13T12:59:27;96955.63;;;7.82;63.43
49973;BME280;65693;49.798;10.968;2023-03-13T13:02:00;96928.38;;;7.82;63.73
49973;BME280;65693;49.798;10.968;2023-03-13T13:04:32;96911.50;;;7.84;63.37
49973;BME280;65693;49.798;10.968;2023-03-13T13:07:04;96918.47;;;7.86;63.80
49973;BME280;65693;49.798;10.968;2023-03-13T13:09:35;96899.91;;;7.87;63.67
49973;BME280;65693;49.798;10.968;2023-03-13T13:12:18;96907.59;;;8.96;68.60
49973;BME280;65693;49.798;10.968;2023-03-13T13:15:24;96911.94;;;8.86;67.06
49973;BME280;65693;49.798;10.968;2023-03-13T13:18:22;96904.16;;;8.60;66.08
49973;BME280;65693;49.798;10.968;2023-03-13T13:21:29;96900.78;;;8.46;65.49
49973;BME280;65693;49.798;10.968;2023-03-13T13:27:45;96884.44;;;8.30;65.24
49973;BME280;65693;49.798;10.968;2023-03-13T13:30:34;96878.31;;;8.29;65.03
49973;BME280;65693;49.798;10.968;2023-03-13T13:33:33;96866.19;;;8.26;65.13
49973;BME280;65693;49.798;10.968;2023-03-13T13:36:29;96869.06;;;8.23;64.67
49973;BME280;65693;49.798;10.968;2023-03-13T13:38:56;96868.09;;;8.24;64.87